Terminal Aerodrome Forecast
Issued by NWS Milwaukee/Sullivan, WI

Home | Current Version | Previous Version | Text Only | Print | Product List | Glossary On
Versions: 1 2 3 4 5 6 7 8 9 10 11 12 13 14 15 16 17 18 19 20 21 22 23 24 25 26 27 28 29 30 31 32 33 34 35 36 37 38 39 40 41 42 43 44
664
FTUS43 KMKX 100525
TAFMSN
TAF
KMSN 100525Z 1006/1106 27005KT P6SM -SHSN FEW035 OVC080
     FM101300 28006KT P6SM BKN040 OVC080
     FM102200 20004KT P6SM -SN OVC025
     FM110100 15004KT 1 1/2SM -SN SCT007 OVC015=

USA.gov is the U.S. government's official web portal to all federal, state and local government web resources and services.